Time;durP1;ratioP1;P1;durP2;ratioP2;P2;SDS_P1;SDS_P2;PMS_P1;PMS_P2;Temp;Humidity;BMP_temperature;BMP_pressure;BME280_temperature;BME280_humidity;BME280_pressure;Samples;Min_cycle;Max_cycle;Signal;HPM_P1;HPM_P2
2023/09/09 00:02:12;;;;;;;9.77;4.15;;;;;;;20.53;48.31;100196.16;7685059;32;37015;-83
2023/09/09 00:06:29;;;;;;;12.20;4.28;;;;;;;20.49;48.38;100197.13;7685175;32;39575;-83
2023/09/09 00:10:46;;;;;;;7.55;3.47;;;;;;;20.50;48.51;100207.88;7685174;32;40656;-83
2023/09/09 00:15:05;;;;;;;7.82;3.75;;;;;;;20.49;48.53;100208.19;7685161;32;38882;-83
2023/09/09 00:19:21;;;;;;;6.00;3.72;;;;;;;20.30;49.40;100206.63;7685291;32;36813;-83
2023/09/09 00:23:38;;;;;;;7.32;3.72;;;;;;;20.25;49.66;100202.06;7684983;32;39221;-83
2023/09/09 00:27:55;;;;;;;8.07;4.28;;;;;;;20.06;51.35;100207.13;7684983;32;40051;-83
2023/09/09 00:32:11;;;;;;;8.70;4.07;;;;;;;19.85;51.74;100205.00;7684168;32;38717;-83
2023/09/09 00:36:27;;;;;;;5.18;3.20;;;;;;;19.84;51.10;100192.28;7684803;32;37777;-83
2023/09/09 00:41:04;;;;;;;7.25;3.95;;;;;;;19.82;50.85;100197.34;7684870;32;39356;-83
2023/09/09 00:45:20;;;;;;;12.75;4.53;;;;;;;20.11;50.37;100201.41;7684546;32;39911;-83
2023/09/09 00:49:36;;;;;;;12.05;4.47;;;;;;;20.06;50.45;100196.06;7684564;32;38753;-83
2023/09/09 00:53:52;;;;;;;9.23;4.30;;;;;;;20.13;50.26;100195.53;7684506;32;37294;-83
2023/09/09 00:58:10;;;;;;;8.15;4.12;;;;;;;20.02;50.69;100189.53;7895228;27;40153;-82
2023/09/09 01:02:26;;;;;;;8.07;3.97;;;;;;;19.94;51.26;100201.38;7682627;32;40787;-83
2023/09/09 01:06:43;;;;;;;8.75;4.10;;;;;;;20.04;51.16;100198.31;7684340;32;38021;-83
2023/09/09 01:10:59;;;;;;;7.87;4.00;;;;;;;20.15;50.61;100199.63;7682407;32;38042;-82
2023/09/09 01:15:16;;;;;;;6.72;4.03;;;;;;;20.38;49.91;100196.66;7684382;32;39486;-83
2023/09/09 01:19:32;;;;;;;10.38;4.32;;;;;;;20.28;50.07;100195.03;7683096;32;39758;-83
2023/09/09 01:23:48;;;;;;;7.00;3.80;;;;;;;20.15;50.58;100194.09;7684034;32;38142;-83
2023/09/09 01:28:05;;;;;;;7.87;4.12;;;;;;;20.26;50.42;100194.56;7682562;32;37087;-83
2023/09/09 01:32:21;;;;;;;10.10;4.25;;;;;;;20.13;50.92;100190.84;7683919;32;40107;-82
2023/09/09 01:36:37;;;;;;;7.72;4.15;;;;;;;20.08;51.14;100188.22;7683437;32;39891;-82
2023/09/09 01:40:54;;;;;;;8.13;4.43;;;;;;;20.04;51.10;100188.06;7683811;32;38108;-83
2023/09/09 01:45:10;;;;;;;8.25;4.37;;;;;;;20.08;51.06;100185.47;7683737;32;36811;-83
2023/09/09 01:49:27;;;;;;;7.47;4.18;;;;;;;19.97;51.48;100181.38;7683455;32;40131;-83
2023/09/09 01:53:43;;;;;;;9.30;4.72;;;;;;;19.87;52.15;100186.09;7683445;32;40796;-83
2023/09/09 01:57:59;;;;;;;7.60;3.58;;;;;;;19.90;51.98;100190.16;7682935;32;37980;-81
2023/09/09 02:02:16;;;;;;;7.85;4.43;;;;;;;19.90;51.61;100181.88;7683321;32;37032;-82
2023/09/09 02:06:33;;;;;;;8.60;4.28;;;;;;;20.07;51.49;100184.66;7683220;32;40189;-82
2023/09/09 02:10:50;;;;;;;7.45;3.92;;;;;;;19.74;52.54;100195.38;7683002;32;39896;-83
2023/09/09 02:15:09;;;;;;;8.60;4.40;;;;;;;19.70;52.74;100194.38;7681682;32;37951;-83
2023/09/09 02:19:25;;;;;;;7.57;4.35;;;;;;;19.84;52.41;100183.97;7681775;32;36101;-83
2023/09/09 02:23:42;;;;;;;7.07;4.30;;;;;;;19.80;52.43;100183.00;7683802;32;39460;-83
2023/09/09 02:27:59;;;;;;;8.80;4.50;;;;;;;19.75;52.68;100191.47;7686297;32;39996;-82
2023/09/09 02:32:16;;;;;;;7.50;3.90;;;;;;;19.66;52.80;100188.66;7686082;32;37897;-83
2023/09/09 02:36:32;;;;;;;10.20;3.92;;;;;;;19.51;53.15;100181.62;7685996;32;36941;-79
2023/09/09 02:40:48;;;;;;;6.90;3.80;;;;;;;19.83;54.00;100187.06;7686135;32;39332;-81
2023/09/09 02:45:05;;;;;;;8.40;4.68;;;;;;;19.74;52.60;100172.41;7686188;32;40467;-82
2023/09/09 02:49:22;;;;;;;10.05;4.68;;;;;;;19.74;52.43;100175.16;7686084;32;38683;-82
2023/09/09 02:53:38;;;;;;;9.35;4.10;;;;;;;19.72;52.44;100175.50;7686121;32;37901;-82
2023/09/09 02:57:55;;;;;;;7.68;4.30;;;;;;;19.56;52.99;100172.37;7685638;32;40074;-82
2023/09/09 03:02:11;;;;;;;7.30;4.15;;;;;;;19.50;53.06;100168.94;7685942;32;40750;-82
2023/09/09 03:06:27;;;;;;;7.37;4.25;;;;;;;19.44;53.10;100170.25;7685845;32;37991;-82
2023/09/09 03:10:44;;;;;;;7.90;4.28;;;;;;;19.42;53.11;100169.75;7685770;32;37650;-82
2023/09/09 03:15:03;;;;;;;8.43;4.50;;;;;;;19.30;53.35;100166.81;7685366;32;39210;-82
2023/09/09 03:19:19;;;;;;;7.55;4.10;;;;;;;19.30;53.23;100164.84;7685826;32;40805;-82
2023/09/09 03:23:36;;;;;;;6.80;4.68;;;;;;;19.27;53.35;100170.19;7685624;32;38203;-82
2023/09/09 03:27:52;;;;;;;10.30;4.70;;;;;;;19.10;54.24;100166.25;7685793;32;37315;-82
2023/09/09 03:32:09;;;;;;;7.97;4.70;;;;;;;18.94;54.88;100167.81;7685599;32;40207;-82
2023/09/09 03:36:25;;;;;;;10.25;4.75;;;;;;;18.98;54.81;100163.28;7684839;32;39834;-82
2023/09/09 03:40:44;;;;;;;8.43;4.15;;;;;;;18.95;55.06;100163.91;7685448;32;38752;-82
2023/09/09 03:45:00;;;;;;;8.40;4.32;;;;;;;18.99;54.79;100153.88;7684404;32;37792;-82
2023/09/09 03:49:17;;;;;;;7.85;4.15;;;;;;;18.91;54.83;100160.16;7684321;32;39373;-82
2023/09/09 03:53:33;;;;;;;8.55;4.50;;;;;;;19.00;54.62;100157.44;7685293;32;40152;-82
2023/09/09 03:57:51;;;;;;;8.23;4.35;;;;;;;19.16;54.13;100152.28;7684388;32;38697;-81
2023/09/09 04:02:08;;;;;;;12.02;5.10;;;;;;;19.04;54.57;100156.47;7685317;32;37496;-82
2023/09/09 04:06:24;;;;;;;9.05;4.05;;;;;;;19.02;54.69;100163.44;7685236;32;39897;-82
2023/09/09 04:10:40;;;;;;;7.57;4.37;;;;;;;18.85;55.20;100165.03;7685226;32;40556;-82
2023/09/09 04:14:57;;;;;;;8.10;4.50;;;;;;;18.89;54.98;100166.00;7684836;32;37902;-82
2023/09/09 04:19:13;;;;;;;7.78;4.18;;;;;;;18.80;55.30;100172.56;7685074;32;37008;-82
2023/09/09 04:23:30;;;;;;;7.65;4.50;;;;;;;18.73;55.55;100178.56;7685036;32;39857;-82
2023/09/09 04:27:46;;;;;;;8.35;4.32;;;;;;;18.62;55.66;100172.50;7685119;32;40193;-82
2023/09/09 04:32:03;;;;;;;7.78;5.03;;;;;;;18.77;55.27;100179.56;7684659;32;37968;-81
2023/09/09 04:36:19;;;;;;;8.13;4.72;;;;;;;18.68;55.57;100175.94;7684860;32;37155;-81
2023/09/09 04:40:38;;;;;;;9.00;4.70;;;;;;;18.71;55.57;100187.19;7684729;32;40116;-82
2023/09/09 04:44:55;;;;;;;7.57;4.40;;;;;;;18.66;55.89;100184.56;7676811;32;241241;-82
2023/09/09 04:49:11;;;;;;;8.73;4.60;;;;;;;18.76;55.60;100184.28;7684370;32;37976;-82
2023/09/09 04:53:28;;;;;;;8.85;4.65;;;;;;;18.76;55.88;100189.81;7684741;32;37874;-83
2023/09/09 04:57:44;;;;;;;11.07;4.68;;;;;;;18.76;55.87;100189.81;7684188;32;39430;-82
2023/09/09 05:02:02;;;;;;;10.20;4.65;;;;;;;18.72;56.35;100190.75;7684002;32;40875;-82
2023/09/09 05:06:19;;;;;;;9.52;4.70;;;;;;;18.95;55.60;100194.28;7684569;32;37983;-82
2023/09/09 05:10:35;;;;;;;8.20;4.57;;;;;;;18.86;56.10;100196.22;7684449;32;37749;-83
2023/09/09 05:14:51;;;;;;;6.50;4.10;;;;;;;19.00;55.74;100196.09;7684233;32;39309;-83
2023/09/09 05:19:07;;;;;;;9.68;4.32;;;;;;;18.91;56.08;100204.38;7684289;32;40073;-83
2023/09/09 05:23:24;;;;;;;8.57;4.60;;;;;;;18.83;56.59;100205.12;7684044;32;37754;-83
2023/09/09 05:27:40;;;;;;;8.77;4.80;;;;;;;19.22;55.43;100195.22;7684081;32;36973;-82
2023/09/09 05:31:56;;;;;;;6.60;3.87;;;;;;;19.06;55.83;100195.66;7684020;32;39033;-83
2023/09/09 05:36:13;;;;;;;7.72;4.40;;;;;;;19.23;55.73;100192.16;7683710;32;40845;-72
2023/09/09 05:40:29;;;;;;;8.68;4.37;;;;;;;19.48;55.32;100193.34;7683653;32;37947;-71
2023/09/09 05:44:45;;;;;;;8.55;4.32;;;;;;;19.58;55.19;100191.41;7682246;32;37271;-71
2023/09/09 05:49:01;;;;;;;7.35;3.70;;;;;;;19.86;54.64;100197.50;7683179;32;39338;-70
2023/09/09 05:53:18;;;;;;;7.30;4.28;;;;;;;20.01;54.18;100185.94;7683405;32;40872;-71
2023/09/09 05:57:34;;;;;;;17.75;4.15;;;;;;;20.23;53.53;100178.59;7683608;32;38797;-74
2023/09/09 06:01:50;;;;;;;13.02;4.62;;;;;;;20.60;52.93;100187.34;7686365;32;37110;-76
2023/09/09 06:06:07;;;;;;;8.35;4.30;;;;;;;20.79;52.26;100185.03;7686378;32;40162;-77
2023/09/09 06:10:24;;;;;;;9.50;4.12;;;;;;;21.07;51.56;100184.59;7686141;32;40651;-75
2023/09/09 06:14:41;;;;;;;7.40;3.83;;;;;;;21.37;50.32;100187.41;7686386;32;37918;-76
2023/09/09 06:18:57;;;;;;;8.85;3.97;;;;;;;21.59;49.49;100189.06;7686528;32;37158;-73
2023/09/09 06:23:14;;;;;;;7.47;4.40;;;;;;;21.58;49.19;100187.44;7686376;32;39404;-73
2023/09/09 06:27:31;;;;;;;9.80;4.15;;;;;;;21.66;48.86;100194.09;7685218;32;40027;-73
2023/09/09 06:31:47;;;;;;;7.53;4.05;;;;;;;21.92;48.18;100196.66;7681262;32;37906;-71
2023/09/09 06:36:03;;;;;;;6.70;3.83;;;;;;;22.01;49.10;100200.19;7686178;32;37878;-72
2023/09/09 06:40:20;;;;;;;7.70;3.80;;;;;;;21.93;50.50;100203.84;7686121;32;40214;-71
2023/09/09 06:44:36;;;;;;;7.43;4.05;;;;;;;21.74;51.42;100199.56;7686229;32;40624;-72
2023/09/09 06:48:52;;;;;;;10.00;4.30;;;;;;;21.79;51.51;100201.34;7686011;32;37884;-70
2023/09/09 06:53:08;;;;;;;10.02;4.10;;;;;;;21.93;50.84;100210.19;7686155;32;37507;-70
2023/09/09 06:57:25;;;;;;;6.60;3.80;;;;;;;21.87;50.51;100217.13;7685759;32;39387;-69
2023/09/09 07:01:41;;;;;;;8.23;4.03;;;;;;;21.89;49.55;100219.56;7685927;32;39940;-72
2023/09/09 07:06:00;;;;;;;8.35;4.05;;;;;;;22.07;49.66;100218.25;7685731;32;38690;-71
2023/09/09 07:10:16;;;;;;;8.05;4.07;;;;;;;21.95;49.83;100220.97;7685201;32;37738;-74
2023/09/09 07:14:33;;;;;;;7.32;3.95;;;;;;;22.55;48.81;100218.84;7685693;32;39434;-73
2023/09/09 07:18:52;;;;;;;7.90;4.22;;;;;;;22.30;48.57;100223.47;7685622;32;39751;-72
2023/09/09 07:23:08;;;;;;;7.65;4.35;;;;;;;22.67;47.57;100221.66;7685539;32;37726;-83
2023/09/09 07:27:25;;;;;;;7.55;3.92;;;;;;;22.99;46.96;100226.69;7685518;32;37077;-83
2023/09/09 07:31:41;;;;;;;7.57;4.50;;;;;;;23.50;46.36;100223.63;7685507;32;39573;-83
2023/09/09 07:35:57;;;;;;;8.30;4.40;;;;;;;23.92;45.36;100212.22;7685419;32;40000;-84
2023/09/09 07:40:14;;;;;;;8.80;4.40;;;;;;;23.95;45.22;100209.56;7685371;32;37801;-83
2023/09/09 07:44:30;;;;;;;7.75;4.53;;;;;;;23.95;45.19;100206.75;7685512;32;37526;-83
2023/09/09 07:48:46;;;;;;;9.93;4.37;;;;;;;24.34;44.24;100207.09;7685284;32;39360;-82
2023/09/09 07:53:04;;;;;;;7.55;3.85;;;;;;;24.41;43.47;100203.72;7685076;32;40021;-83
2023/09/09 07:57:22;;;;;;;7.60;4.30;;;;;;;24.33;43.38;100205.47;7684880;32;38556;-84
2023/09/09 08:01:39;;;;;;;9.63;4.12;;;;;;;24.62;43.01;100208.28;7685178;32;37055;-83
2023/09/09 08:06:02;;;;;;;7.90;4.18;;;;;;;25.16;41.94;100201.28;7685086;32;39341;-84
2023/09/09 08:10:20;;;;;;;6.97;3.83;;;;;;;25.36;42.51;100208.59;7685140;32;40797;-84
2023/09/09 08:14:36;;;;;;;7.55;3.83;;;;;;;25.48;41.49;100200.13;7684786;32;38750;-84
2023/09/09 08:18:55;;;;;;;8.35;3.72;;;;;;;25.82;41.64;100200.50;7683652;32;37356;-83
2023/09/09 08:23:12;;;;;;;6.87;3.92;;;;;;;25.46;41.96;100202.47;7684800;32;39995;-84
2023/09/09 08:27:29;;;;;;;6.35;3.45;;;;;;;26.00;40.46;100194.50;7684939;32;40817;-78
2023/09/09 08:31:49;;;;;;;7.87;3.72;;;;;;;26.17;40.51;100188.47;7684885;32;38659;-84
2023/09/09 08:36:05;;;;;;;5.62;3.37;;;;;;;26.66;34.86;100181.44;7684896;32;37111;-83
2023/09/09 08:40:22;;;;;;;6.20;3.42;;;;;;;26.69;34.68;100197.47;7685112;32;39396;-86
2023/09/09 08:44:46;;;;;;;8.18;3.17;;;;;;;27.22;33.70;100196.78;7684951;32;40405;-87
2023/09/09 08:49:06;;;;;;;11.55;3.58;;;;;;;27.64;33.77;100195.84;7684859;32;38836;-85
2023/09/09 08:53:25;;;;;;;5.80;3.20;;;;;;;28.12;32.39;100184.09;7684821;32;36850;-82
2023/09/09 08:57:41;;;;;;;7.30;3.28;;;;;;;28.20;32.31;100185.00;7684388;32;39389;-83
2023/09/09 09:01:58;;;;;;;7.53;3.10;;;;;;;28.52;31.10;100188.16;7684541;32;40017;-83
2023/09/09 09:06:14;;;;;;;5.78;3.00;;;;;;;28.60;31.02;100177.88;7684353;32;37684;-83
2023/09/09 09:10:31;;;;;;;5.97;2.85;;;;;;;28.75;30.42;100182.41;7684390;32;37869;-81
2023/09/09 09:14:47;;;;;;;7.35;3.25;;;;;;;29.26;30.37;100175.25;7684262;32;39330;-81
2023/09/09 09:19:04;;;;;;;6.25;3.33;;;;;;;29.03;29.90;100172.63;7684132;32;39907;-82
2023/09/09 09:23:20;;;;;;;8.30;3.25;;;;;;;29.54;28.07;100171.81;7684162;32;37659;-82
2023/09/09 09:27:39;;;;;;;5.78;2.72;;;;;;;29.81;29.04;100171.59;7684201;32;37855;-83
2023/09/09 09:31:55;;;;;;;6.35;3.17;;;;;;;30.03;28.04;100166.06;7682385;32;39060;-83
2023/09/09 09:36:15;;;;;;;6.35;3.15;;;;;;;30.41;27.00;100173.06;7684250;32;38857;-81
2023/09/09 09:40:31;;;;;;;5.35;3.05;;;;;;;30.36;27.17;100161.41;7683584;32;38225;-83
2023/09/09 09:44:47;;;;;;;5.37;3.12;;;;;;;30.77;25.65;100166.66;7683714;32;37297;-84
2023/09/09 09:49:08;;;;;;;5.15;3.17;;;;;;;30.91;25.82;100158.25;7683759;32;39390;-83
2023/09/09 09:53:25;;;;;;;4.70;2.90;;;;;;;30.89;26.08;100155.00;7683485;32;39876;-82
2023/09/09 09:57:41;;;;;;;6.22;3.05;;;;;;;31.31;25.87;100156.22;7683052;32;38768;-82
2023/09/09 10:01:59;;;;;;;5.90;3.17;;;;;;;31.50;24.90;100159.84;7682057;32;37854;-82
2023/09/09 10:06:25;;;;;;;6.78;3.15;;;;;;;31.15;25.19;100161.47;7683040;32;39849;-82
2023/09/09 10:10:52;;;;;;;6.40;3.03;;;;;;;31.61;24.08;100157.78;7683148;32;39042;-82
2023/09/09 10:15:10;;;;;;;6.72;3.10;;;;;;;32.01;24.84;100158.44;7682832;32;37954;-84
2023/09/09 10:19:29;;;;;;;5.68;2.80;;;;;;;32.35;23.83;100155.87;7682741;32;37740;-84
2023/09/09 10:23:50;;;;;;;12.02;3.33;;;;;;;32.66;22.61;100150.44;7682768;32;39946;-83
2023/09/09 10:28:12;;;;;;;7.15;2.90;;;;;;;32.81;21.60;100156.00;7682786;32;40876;-83
2023/09/09 10:32:30;;;;;;;6.07;2.97;;;;;;;32.24;21.42;100143.06;7681351;32;37621;-80
2023/09/09 10:36:50;;;;;;;6.45;3.00;;;;;;;32.46;22.33;100143.72;7682373;32;37831;-83
2023/09/09 10:41:15;;;;;;;5.20;3.12;;;;;;;32.49;21.68;100138.03;7680576;32;37967;-82
2023/09/09 10:45:39;;;;;;;6.57;2.97;;;;;;;32.84;21.25;100135.37;7682802;32;40779;-84
2023/09/09 10:50:04;;;;;;;5.57;2.92;;;;;;;32.78;21.40;100132.22;7685772;32;38008;-83
2023/09/09 10:54:26;;;;;;;7.18;2.90;;;;;;;33.08;20.45;100127.91;7685539;32;37065;-82
2023/09/09 10:58:43;;;;;;;6.60;3.40;;;;;;;33.11;21.32;100132.72;7683716;32;39932;-84
2023/09/09 11:02:59;;;;;;;4.53;2.87;;;;;;;33.19;20.84;100134.31;7685114;32;40766;-86
2023/09/09 11:07:16;;;;;;;5.22;3.22;;;;;;;32.76;21.77;100126.19;7685678;32;38064;-83
2023/09/09 11:11:34;;;;;;;6.75;3.35;;;;;;;32.86;21.88;100122.47;7685858;32;37792;-85
2023/09/09 11:15:56;;;;;;;5.22;2.60;;;;;;;33.48;22.37;100114.22;7683908;32;39435;-84
2023/09/09 11:20:13;;;;;;;4.80;3.10;;;;;;;33.84;21.25;100108.16;7684175;32;40870;-82
2023/09/09 11:24:30;;;;;;;7.35;3.15;;;;;;;34.00;20.82;100111.16;7685531;32;38801;-84
2023/09/09 11:28:49;;;;;;;4.60;2.83;;;;;;;34.03;20.01;100115.16;7685658;32;36773;-83
2023/09/09 11:33:05;;;;;;;4.85;3.03;;;;;;;33.98;21.11;100110.81;7684453;32;39379;-84
2023/09/09 11:37:26;;;;;;;6.57;3.17;;;;;;;34.30;20.02;100106.72;7683958;32;40156;-83
2023/09/09 11:41:46;;;;;;;6.03;3.35;;;;;;;34.95;20.03;100100.84;7684856;32;38279;-87
2023/09/09 11:46:03;;;;;;;4.87;2.85;;;;;;;34.60;19.75;100090.91;7682369;32;37181;-85
2023/09/09 11:50:20;;;;;;;5.82;2.60;;;;;;;34.83;19.51;100090.12;7685098;32;39974;-84
2023/09/09 11:54:37;;;;;;;5.28;3.15;;;;;;;34.92;19.72;100084.69;7702207;32;40494;-86
2023/09/09 11:58:53;;;;;;;6.60;2.90;;;;;;;35.37;19.96;100080.66;7698656;32;38261;-86
2023/09/09 12:03:09;;;;;;;6.55;3.10;;;;;;;35.28;19.09;100081.22;7693555;32;37168;-86
2023/09/09 12:07:32;;;;;;;10.63;3.25;;;;;;;34.04;19.82;100086.47;7692374;32;40158;-88
2023/09/09 12:11:49;;;;;;;8.77;3.05;;;;;;;33.93;19.95;100082.22;7683206;32;39878;-85
2023/09/09 12:16:07;;;;;;;6.82;2.90;;;;;;;33.12;21.06;100075.03;7683504;32;38723;-86
2023/09/09 12:20:24;;;;;;;6.93;2.90;;;;;;;33.24;20.54;100068.88;7680578;32;36104;-85
2023/09/09 12:24:43;;;;;;;6.93;3.67;;;;;;;32.53;21.55;100067.47;7680606;32;39033;-87
2023/09/09 12:29:12;;;;;;;5.90;2.92;;;;;;;32.74;22.00;100055.25;7683241;32;40770;-86
2023/09/09 12:33:28;;;;;;;7.53;3.47;;;;;;;32.83;21.97;100052.72;7680590;32;38316;-86
2023/09/09 12:37:45;;;;;;;6.53;3.10;;;;;;;33.68;21.42;100055.06;7678741;32;37360;-85
2023/09/09 12:42:06;;;;;;;6.00;2.70;;;;;;;33.77;20.12;100046.87;7680902;32;39037;-88
2023/09/09 12:46:29;;;;;;;5.12;2.65;;;;;;;34.43;20.02;100044.69;7682152;32;38918;-85
2023/09/09 12:50:47;;;;;;;8.40;2.83;;;;;;;33.58;20.78;100053.97;7683990;32;38098;-88
2023/09/09 12:55:05;;;;;;;5.37;3.03;;;;;;;33.50;20.65;100049.63;7681602;32;36205;-88
2023/09/09 12:59:21;;;;;;;5.85;2.83;;;;;;;33.61;19.83;100043.81;7683304;32;40231;-86
2023/09/09 13:03:39;;;;;;;5.97;3.00;;;;;;;34.52;19.82;100039.28;7680112;32;39883;-86
2023/09/09 13:07:57;;;;;;;5.07;2.70;;;;;;;34.32;20.24;100030.69;7681510;32;37699;-88
2023/09/09 13:12:16;;;;;;;6.45;3.05;;;;;;;34.71;19.41;100029.25;7682894;32;37771;-86
2023/09/09 13:16:32;;;;;;;5.72;2.70;;;;;;;34.37;19.39;100038.69;7680019;32;40119;-85
2023/09/09 13:20:49;;;;;;;8.02;2.97;;;;;;;34.96;18.98;100022.34;7682840;32;40901;-88
2023/09/09 13:25:06;;;;;;;5.10;2.83;;;;;;;35.02;18.49;100014.94;7681425;32;37879;-87
2023/09/09 13:29:22;;;;;;;5.53;3.10;;;;;;;34.99;18.46;100010.94;7678844;32;37786;-85
2023/09/09 13:33:39;;;;;;;5.30;2.87;;;;;;;34.65;18.56;100019.66;7682891;32;39474;-85
2023/09/09 13:37:55;;;;;;;4.78;2.80;;;;;;;34.64;18.83;100023.72;7683487;32;39897;-88
2023/09/09 13:42:12;;;;;;;9.30;2.97;;;;;;;34.86;18.37;100009.16;7682886;32;37833;-89
2023/09/09 13:46:28;;;;;;;4.72;2.80;;;;;;;34.30;19.57;100010.53;7682954;32;36725;-88
2023/09/09 13:50:45;;;;;;;5.53;3.05;;;;;;;34.42;20.72;100009.13;7682940;32;39437;-87
2023/09/09 13:55:03;;;;;;;5.47;2.72;;;;;;;34.88;19.57;100004.69;7683406;32;40775;-87
2023/09/09 13:59:19;;;;;;;6.82;3.15;;;;;;;34.93;19.37;100011.91;7683148;32;37982;-87
2023/09/09 14:03:36;;;;;;;5.40;2.95;;;;;;;35.64;18.89;100006.78;7682672;32;37986;-86
2023/09/09 14:07:53;;;;;;;5.15;3.30;;;;;;;35.65;18.85;100004.75;7683126;32;38260;-87
2023/09/09 14:12:10;;;;;;;5.53;3.08;;;;;;;35.80;18.40;100017.41;7678499;32;39886;-87
2023/09/09 14:16:28;;;;;;;4.50;2.65;;;;;;;36.08;18.00;100006.63;7668521;32;38848;-89
2023/09/09 14:20:44;;;;;;;5.22;3.08;;;;;;;35.30;17.92;100012.78;7675242;32;36780;-86
2023/09/09 14:25:01;;;;;;;7.87;3.20;;;;;;;35.26;18.70;100007.19;7673751;32;39441;-88
2023/09/09 14:29:17;;;;;;;7.72;2.90;;;;;;;35.40;19.11;100003.28;7678329;32;40778;-89
2023/09/09 14:33:33;;;;;;;7.12;2.78;;;;;;;35.74;17.76;99996.50;7674542;32;38720;-86
2023/09/09 14:37:50;;;;;;;5.45;2.90;;;;;;;34.43;19.08;100003.03;7671739;32;37141;-86
2023/09/09 14:42:06;;;;;;;4.45;2.75;;;;;;;34.76;18.04;99986.31;7672117;32;39836;-89
2023/09/09 14:46:25;;;;;;;7.20;2.80;;;;;;;35.31;17.77;99988.91;7672513;32;39896;-87
2023/09/09 14:50:42;;;;;;;4.53;2.80;;;;;;;34.91;17.46;99980.34;7672495;32;37864;-87
2023/09/09 14:54:59;;;;;;;5.32;2.75;;;;;;;34.94;17.52;99985.16;7659665;32;37167;-87
2023/09/09 14:59:17;;;;;;;5.15;2.53;;;;;;;34.83;18.09;99984.56;7659142;32;40115;-87
2023/09/09 15:03:34;;;;;;;4.82;2.65;;;;;;;35.40;17.96;99982.62;7673664;32;40003;-86
2023/09/09 15:07:51;;;;;;;6.05;3.00;;;;;;;35.05;18.41;99974.41;7673344;32;38741;-86
2023/09/09 15:12:09;;;;;;;6.87;2.97;;;;;;;34.76;18.49;99968.53;7670521;32;37098;-90
2023/09/09 15:16:43;;;;;;;5.80;2.70;;;;;;;33.98;20.23;99972.22;7674764;32;39180;-86
2023/09/09 15:21:00;;;;;;;8.55;3.05;;;;;;;34.46;18.68;99978.72;7684374;32;40634;-90
2023/09/09 15:25:16;;;;;;;5.55;2.90;;;;;;;34.72;19.04;99974.25;7685314;32;38613;-82
2023/09/09 15:29:32;;;;;;;9.68;2.87;;;;;;;34.92;19.81;99973.47;7685139;32;37215;-89
2023/09/09 15:33:52;;;;;;;4.03;2.80;;;;;;;35.06;19.02;99970.34;7685756;32;39375;-89
2023/09/09 15:38:08;;;;;;;9.32;2.97;;;;;;;34.70;19.85;99965.34;7684323;32;40624;-90
2023/09/09 15:42:24;;;;;;;4.18;2.92;;;;;;;35.16;19.86;99965.69;7684856;32;37914;-91
2023/09/09 15:46:41;;;;;;;4.78;2.78;;;;;;;35.25;20.34;99965.94;7685650;32;35325;-90
2023/09/09 15:50:58;;;;;;;7.85;3.22;;;;;;;35.40;20.08;99966.44;7685447;32;40101;-90
2023/09/09 15:55:14;;;;;;;4.75;2.90;;;;;;;35.27;19.91;99968.31;7685468;32;40670;-89
2023/09/09 15:59:31;;;;;;;4.70;2.70;;;;;;;35.47;19.96;99971.94;7684849;32;37921;-90
2023/09/09 16:03:47;;;;;;;6.55;3.05;;;;;;;35.59;20.71;99967.62;7685209;32;37731;-87
2023/09/09 16:08:04;;;;;;;5.32;3.05;;;;;;;35.29;20.13;99968.69;7684830;32;39445;-87
2023/09/09 16:12:20;;;;;;;5.05;2.95;;;;;;;35.50;20.68;99975.94;7685104;32;39849;-87
2023/09/09 16:16:37;;;;;;;6.60;2.95;;;;;;;35.60;20.42;99979.75;7683430;32;38076;-85
2023/09/09 16:20:54;;;;;;;6.07;3.37;;;;;;;37.08;19.21;99974.81;7684946;32;37107;-84
2023/09/09 16:25:11;;;;;;;5.68;2.83;;;;;;;36.36;20.22;99978.78;7684972;32;39818;-87
2023/09/09 16:29:27;;;;;;;6.70;2.90;;;;;;;36.76;19.54;99978.59;7684285;32;40805;-88
2023/09/09 16:33:44;;;;;;;6.43;3.10;;;;;;;36.53;19.85;99979.56;7683570;32;37903;-86
2023/09/09 16:38:00;;;;;;;4.22;2.80;;;;;;;35.17;21.17;99993.59;7684912;32;37076;-84
2023/09/09 16:42:16;;;;;;;4.82;2.87;;;;;;;34.34;21.96;99982.19;7684998;32;40004;-85
2023/09/09 16:46:32;;;;;;;6.03;3.03;;;;;;;34.08;22.18;99987.41;7683539;32;39925;-84
2023/09/09 16:50:50;;;;;;;9.27;3.20;;;;;;;33.50;23.36;99991.06;7684763;32;37985;-85
2023/09/09 16:55:09;;;;;;;6.05;2.95;;;;;;;33.08;23.75;99983.91;7684765;32;37358;-86
2023/09/09 16:59:39;;;;;;;6.60;2.90;;;;;;;32.54;24.78;99996.53;7684438;32;39377;-86
2023/09/09 17:03:55;;;;;;;5.68;3.10;;;;;;;32.21;25.53;99988.78;7684529;32;39828;-85
2023/09/09 17:08:13;;;;;;;5.72;3.08;;;;;;;31.41;26.20;100000.47;7684425;32;38010;-86
2023/09/09 17:12:30;;;;;;;8.32;3.00;;;;;;;31.13;27.43;100012.63;7661245;32;37917;-87
2023/09/09 17:16:46;;;;;;;10.27;3.40;;;;;;;30.44;28.32;100020.37;7676936;32;39132;-73
2023/09/09 17:21:03;;;;;;;11.50;3.85;;;;;;;30.11;28.76;100024.34;7683814;32;39974;-74
2023/09/09 17:25:19;;;;;;;7.50;3.28;;;;;;;29.90;29.43;100027.91;7684002;32;38868;-73
2023/09/09 17:29:35;;;;;;;26.05;4.25;;;;;;;29.50;30.07;100024.94;7684030;32;37078;-74
2023/09/09 17:33:51;;;;;;;11.57;5.07;;;;;;;29.19;30.81;100030.03;7684006;32;40057;-87
2023/09/09 17:38:08;;;;;;;9.23;4.60;;;;;;;28.87;31.30;100029.00;7683398;32;40168;-87
2023/09/09 17:42:24;;;;;;;11.43;3.83;;;;;;;28.59;31.83;100038.81;7683719;32;37585;-88
2023/09/09 17:46:41;;;;;;;6.80;3.55;;;;;;;28.45;31.92;100034.66;7683679;32;37190;-88
2023/09/09 17:50:57;;;;;;;9.75;4.20;;;;;;;28.16;32.43;100041.22;7683811;32;40071;-89
2023/09/09 17:55:15;;;;;;;10.70;4.78;;;;;;;27.93;33.10;100052.59;7683002;32;39816;-85
2023/09/09 17:59:33;;;;;;;12.48;5.37;;;;;;;27.64;33.83;100061.44;7679944;32;37883;-83
2023/09/09 18:03:51;;;;;;;15.25;4.50;;;;;;;27.41;34.17;100069.16;7682798;32;37148;-84
2023/09/09 18:08:07;;;;;;;12.55;3.80;;;;;;;27.17;33.96;100066.38;7658528;32;39325;-82
2023/09/09 18:12:24;;;;;;;9.88;3.35;;;;;;;26.92;33.58;100076.41;7691235;32;39898;-83
2023/09/09 18:16:40;;;;;;;9.65;3.65;;;;;;;26.89;33.55;100086.38;7683864;32;39276;-84
2023/09/09 18:21:03;;;;;;;6.15;3.20;;;;;;;26.56;34.81;100084.19;7703952;32;37377;-82
2023/09/09 18:25:29;;;;;;;8.27;4.10;;;;;;;26.35;35.56;100093.00;7690034;32;40194;-83
2023/09/09 18:29:46;;;;;;;11.77;4.45;;;;;;;26.19;36.00;100096.69;7709379;32;40053;-82
2023/09/09 18:34:05;;;;;;;7.50;3.85;;;;;;;25.96;36.54;100090.28;7709295;32;38604;-88
2023/09/09 18:38:22;;;;;;;7.40;3.33;;;;;;;25.81;36.40;100095.53;7705934;32;37051;-88
2023/09/09 18:42:38;;;;;;;8.82;5.43;;;;;;;25.59;36.62;100090.69;7682449;32;39353;-88
2023/09/09 18:46:57;;;;;;;8.30;3.53;;;;;;;25.50;36.46;100090.91;7682454;32;40925;-91
2023/09/09 18:51:16;;;;;;;9.30;4.00;;;;;;;25.24;36.84;100097.87;7682386;32;37842;-91
2023/09/09 18:55:32;;;;;;;9.35;3.40;;;;;;;25.18;36.67;100101.31;7682648;32;37130;-90
2023/09/09 18:59:49;;;;;;;6.00;3.10;;;;;;;25.01;36.65;100100.56;7682098;32;40167;-86
2023/09/09 19:04:05;;;;;;;11.02;5.53;;;;;;;24.98;36.64;100097.69;7682065;32;40997;-87
2023/09/09 19:08:22;;;;;;;12.35;6.03;;;;;;;24.80;36.44;100100.03;7685392;32;38638;-87
2023/09/09 19:12:39;;;;;;;7.45;3.72;;;;;;;24.73;36.98;100107.06;7685187;32;37225;-87
2023/09/09 19:16:55;;;;;;;6.50;3.25;;;;;;;24.61;37.40;100115.50;7685021;32;40142;-86
2023/09/09 19:21:12;;;;;;;8.65;4.03;;;;;;;24.29;38.08;100104.28;7685647;32;40048;-88
2023/09/09 19:25:30;;;;;;;8.80;4.85;;;;;;;24.38;38.03;100115.25;7685235;32;38017;-88
2023/09/09 19:29:51;;;;;;;8.45;4.40;;;;;;;24.46;38.73;100111.50;7685660;32;37904;-88
2023/09/09 19:34:07;;;;;;;9.93;4.07;;;;;;;24.19;39.63;100118.72;7685200;32;39365;-87
2023/09/09 19:38:23;;;;;;;6.87;3.70;;;;;;;24.05;39.68;100107.22;7685467;32;40143;-87
2023/09/09 19:42:41;;;;;;;5.50;3.08;;;;;;;23.76;39.52;100123.84;7685292;32;38026;-87
2023/09/09 19:46:58;;;;;;;9.52;5.20;;;;;;;23.88;38.54;100133.38;7685421;32;36045;-87
2023/09/09 19:51:16;;;;;;;5.90;3.12;;;;;;;23.97;38.35;100126.50;7684143;32;40142;-87
2023/09/09 19:55:32;;;;;;;7.20;3.50;;;;;;;23.61;38.76;100125.44;7685608;32;40516;-87